Time;durP1;ratioP1;P1;durP2;ratioP2;P2;SDS_P1;SDS_P2;PMS_P1;PMS_P2;Temp;Humidity;BMP_temperature;BMP_pressure;BME280_temperature;BME280_humidity;BME280_pressure;Samples;Min_cycle;Max_cycle;Signal;HPM_P1;HPM_P2
2022/02/01 00:04:17;;;;;;;47.10;20.80;;;;;;;-0.08;84.10;97632.05;432431;1270;107461;-41
2022/02/01 00:45:11;;;;;;;71.50;24.50;;;;;;;-0.46;84.64;97682.45;432404;1270;109089;-40
2022/02/01 00:55:19;;;;;;;60.50;23.80;;;;;;;-0.54;84.60;97677.52;432392;1271;96168;-40
2022/02/01 01:05:25;;;;;;;55.00;19.80;;;;;;;-0.50;84.56;97682.09;432855;1271;95638;-41
2022/02/01 01:15:34;;;;;;;62.80;25.60;;;;;;;-0.52;84.42;97696.16;432449;1271;108774;-40
2022/02/01 01:56:58;;;;;;;72.00;33.80;;;;;;;-1.66;84.09;97727.95;432755;1271;108994;-42
2022/02/01 02:07:05;;;;;;;68.80;27.60;;;;;;;-1.81;84.04;97738.83;433279;1261;96159;-39
2022/02/01 02:17:13;;;;;;;58.90;26.50;;;;;;;-1.78;84.29;97754.94;431928;1273;96566;-41
2022/02/01 02:27:21;;;;;;;53.20;22.70;;;;;;;-1.64;84.44;97775.13;432262;1273;109798;-40
2022/02/01 02:37:31;;;;;;;56.30;27.70;;;;;;;-1.54;84.42;97781.59;432238;1273;108770;-40
2022/02/01 02:47:40;;;;;;;81.30;31.80;;;;;;;-1.50;84.67;97802.48;432275;1272;95275;-40
2022/02/01 02:57:47;;;;;;;72.40;27.30;;;;;;;-1.51;85.26;97807.17;431907;1273;95333;-40
2022/02/01 03:07:54;;;;;;;66.10;23.20;;;;;;;-1.46;85.58;97816.27;432041;1273;109818;-40
2022/02/01 03:28:26;;;;;;;50.50;22.00;;;;;;;-1.37;85.82;97816.77;432340;1271;96158;-42
2022/02/01 03:38:34;;;;;;;65.80;26.00;;;;;;;-1.33;85.85;97814.95;432286;1273;110169;-39
2022/02/01 03:48:42;;;;;;;67.70;27.60;;;;;;;-1.41;85.83;97818.67;432396;1271;108738;-41
2022/02/01 03:58:49;;;;;;;72.10;29.30;;;;;;;-1.50;85.98;97812.17;432354;1272;108835;-40
2022/02/01 04:08:56;;;;;;;77.70;30.10;;;;;;;-1.52;85.72;97820.39;432120;1272;95720;-40
2022/02/01 04:19:05;;;;;;;70.50;29.20;;;;;;;-1.47;85.40;97819.13;432224;1272;96165;-40
2022/02/01 04:29:12;;;;;;;51.60;23.20;;;;;;;-1.37;85.51;97829.60;432303;1272;108684;-41
2022/02/01 04:39:19;;;;;;;46.50;22.00;;;;;;;-1.24;85.83;97852.99;432260;1271;96513;-40
2022/02/01 04:49:26;;;;;;;67.30;30.40;;;;;;;-1.08;85.71;97852.03;432343;1271;109688;-41
2022/02/01 04:59:34;;;;;;;79.70;29.90;;;;;;;-1.11;85.76;97856.38;432220;1271;108875;-40
2022/02/01 05:09:41;;;;;;;65.30;22.40;;;;;;;-1.25;85.60;97872.77;432275;1272;108902;-41
2022/02/01 05:19:55;;;;;;;55.90;23.60;;;;;;;-1.22;85.72;97873.14;432199;1271;95509;-40
2022/02/01 05:30:03;;;;;;;58.40;21.60;;;;;;;-1.21;85.65;97868.56;432334;1271;108571;-41
2022/02/01 05:40:11;;;;;;;62.50;24.30;;;;;;;-1.13;85.59;97880.45;432233;1271;108812;-39
2022/02/01 05:50:18;;;;;;;63.50;22.40;;;;;;;-1.13;86.01;97898.84;432144;1271;95859;-39
2022/02/01 06:00:26;;;;;;;53.80;21.60;;;;;;;-1.14;85.84;97902.70;432386;1273;95415;-40
2022/02/01 06:10:33;;;;;;;52.90;21.80;;;;;;;-1.28;85.70;97903.08;432281;1271;109188;-40
2022/02/01 06:20:40;;;;;;;48.50;20.20;;;;;;;-1.39;85.72;97901.83;432156;1273;108809;-40
2022/02/01 06:40:54;;;;;;;48.50;20.40;;;;;;;-1.25;85.35;97913.43;433944;1267;97910;-40
2022/02/01 06:51:02;;;;;;;37.00;15.70;;;;;;;-1.17;85.31;97932.98;433412;1268;109122;-40
2022/02/01 07:01:09;;;;;;;47.00;18.50;;;;;;;-1.21;85.56;97945.55;433857;1267;97520;-40
2022/02/01 07:11:18;;;;;;;39.30;15.10;;;;;;;-1.23;85.51;97948.70;433384;1268;97907;-42
2022/02/01 07:21:28;;;;;;;65.30;27.00;;;;;;;-1.27;85.40;97946.52;433863;1267;111360;-41
2022/02/01 07:31:34;;;;;;;33.40;13.70;;;;;;;-1.21;85.48;97956.80;433978;1267;108724;-40
2022/02/01 07:41:42;;;;;;;31.40;12.60;;;;;;;-1.09;85.53;97965.48;433877;1267;98018;-42
2022/02/01 07:51:49;;;;;;;40.80;16.60;;;;;;;-0.93;85.46;97970.52;433893;1267;111045;-40
2022/02/01 08:01:56;;;;;;;48.00;21.60;;;;;;;-0.60;85.40;97971.65;433809;1267;108942;-40
2022/02/01 08:12:11;;;;;;;64.40;26.80;;;;;;;-0.35;85.51;97960.34;433989;1267;97002;-40
2022/02/01 08:32:29;;;;;;;36.10;15.80;;;;;;;-0.04;84.73;97965.13;433972;1267;111085;-40
2022/02/01 08:42:40;;;;;;;34.70;12.90;;;;;;;0.24;84.80;97955.71;433388;1268;108827;-41
2022/02/01 08:52:49;;;;;;;29.50;12.60;;;;;;;0.60;84.18;97956.54;433895;1267;96972;-42
2022/02/01 09:13:05;;;;;;;29.20;10.70;;;;;;;0.26;83.12;97947.73;433836;1267;108894;-40
2022/02/01 09:23:11;;;;;;;21.30;9.60;;;;;;;0.36;82.76;97941.86;433781;1267;98028;-40
2022/02/01 09:33:22;;;;;;;17.80;8.70;;;;;;;0.41;82.44;97936.03;433976;1267;110870;-42
2022/02/01 09:43:30;;;;;;;23.60;9.90;;;;;;;0.41;82.25;97947.74;433840;1267;108785;-40
2022/02/01 09:53:38;;;;;;;22.80;9.30;;;;;;;0.36;82.30;97957.30;434026;1267;109064;-40
2022/02/01 10:03:48;;;;;;;18.10;6.90;;;;;;;0.33;82.05;97949.34;433823;1267;96616;-40
2022/02/01 10:24:29;;;;;;;34.40;11.60;;;;;;;0.75;82.20;97913.14;433909;1264;108218;-42
2022/02/01 10:34:44;;;;;;;38.80;13.70;;;;;;;0.75;82.16;97896.31;433874;1266;96687;-41
2022/02/01 10:45:11;;;;;;;39.20;14.90;;;;;;;0.90;82.32;97879.71;433969;1267;111073;-39
2022/02/01 10:55:21;;;;;;;17.20;9.00;;;;;;;0.87;82.20;97877.64;433976;1267;108543;-42
2022/02/01 11:05:29;;;;;;;20.70;9.30;;;;;;;0.71;81.89;97869.52;433350;1268;98021;-42
2022/02/01 11:15:55;;;;;;;20.40;9.80;;;;;;;0.74;82.26;97853.95;434028;1267;111210;-40
2022/02/01 11:26:08;;;;;;;31.60;13.30;;;;;;;0.73;82.66;97852.66;433871;1266;108829;-40
2022/02/01 11:36:20;;;;;;;23.80;12.20;;;;;;;0.65;82.69;97843.77;434063;1265;97904;-41
2022/02/01 11:46:27;;;;;;;50.60;18.80;;;;;;;0.59;82.82;97839.04;434087;1267;110221;-42
2022/02/01 11:56:34;;;;;;;22.40;10.40;;;;;;;0.58;82.99;97832.02;433968;1267;108827;-40
2022/02/01 12:06:40;;;;;;;17.80;9.80;;;;;;;0.50;83.29;97813.23;433917;1267;96610;-40
2022/02/01 12:16:52;;;;;;;38.30;15.10;;;;;;;0.44;83.37;97792.92;433998;1267;109027;-42
2022/02/01 12:27:00;;;;;;;34.40;15.90;;;;;;;0.39;83.64;97775.81;433931;1267;108821;-40
2022/02/01 12:37:04;;;;;;;38.60;14.50;;;;;;;0.46;83.67;97759.04;433360;1268;97891;-41
2022/02/01 12:47:19;;;;;;;29.90;12.40;;;;;;;0.57;83.77;97746.52;433995;1267;111076;-40
2022/02/01 12:57:23;;;;;;;39.00;14.90;;;;;;;0.65;83.97;97733.77;433772;1267;107833;-40
2022/02/01 13:07:44;;;;;;;33.40;14.60;;;;;;;0.63;84.00;97726.19;433943;1267;96676;-40
2022/02/01 13:28:01;;;;;;;25.50;13.60;;;;;;;0.40;84.38;97708.33;433757;1267;108134;-40
2022/02/01 13:38:18;;;;;;;31.40;15.90;;;;;;;0.44;84.48;97697.47;433332;1268;97910;-41
2022/02/01 13:48:29;;;;;;;25.90;15.10;;;;;;;0.47;84.75;97701.85;429386;1268;5393490;-40
2022/02/01 13:58:40;;;;;;;29.50;14.00;;;;;;;0.48;84.80;97679.30;433836;1267;108998;-41
2022/02/01 14:50:15;;;;;;;34.10;15.60;;;;;;;0.48;85.48;97637.48;433879;1267;108832;-42
2022/02/01 15:21:13;;;;;;;23.40;12.70;;;;;;;0.34;85.40;97586.39;433304;1270;108950;-40
2022/02/01 15:31:20;;;;;;;27.40;12.10;;;;;;;0.35;85.42;97568.23;433726;1267;97927;-41
2022/02/01 16:02:17;;;;;;;22.80;10.60;;;;;;;-0.00;85.96;97487.73;433910;1267;96645;-39
2022/02/01 16:22:30;;;;;;;22.00;10.60;;;;;;;0.00;86.19;97446.96;433771;1267;108827;-41
2022/02/01 16:32:37;;;;;;;17.50;9.80;;;;;;;0.07;86.37;97439.38;433835;1267;97893;-42
2022/02/01 16:42:47;;;;;;;30.90;14.00;;;;;;;0.04;86.48;97411.02;433783;1268;108958;-38
2022/02/01 16:53:00;;;;;;;20.70;11.00;;;;;;;-0.02;86.57;97382.66;433524;1268;108941;-39
2022/02/01 17:03:07;;;;;;;13.90;7.80;;;;;;;-0.03;86.50;97357.11;433817;1268;98003;-40
2022/02/01 17:13:19;;;;;;;21.30;9.60;;;;;;;-0.03;86.53;97334.72;433236;1268;108756;-41
2022/02/01 17:23:26;;;;;;;38.60;13.60;;;;;;;-0.04;86.46;97315.05;433809;1268;96686;-40
2022/02/01 17:33:34;;;;;;;44.80;20.60;;;;;;;-0.13;86.50;97288.44;433707;1268;111267;-39
2022/02/01 17:43:43;;;;;;;35.90;18.30;;;;;;;-0.19;86.51;97254.82;433790;1267;108754;-40
2022/02/01 18:04:01;;;;;;;25.00;12.60;;;;;;;-0.06;86.40;97201.72;433106;1268;111058;-39
2022/02/01 18:24:15;;;;;;;32.10;16.60;;;;;;;-0.22;86.52;97144.42;433316;1268;97502;-40
2022/02/01 18:34:23;;;;;;;22.10;12.70;;;;;;;-0.28;86.44;97112.15;433410;1268;97447;-40
2022/02/01 18:44:31;;;;;;;23.60;13.60;;;;;;;-0.21;86.47;97097.38;433729;1268;109057;-40
2022/02/01 19:15:21;;;;;;;33.60;13.10;;;;;;;-0.12;86.36;97015.46;433332;1268;108861;-40
2022/02/01 19:25:30;;;;;;;19.60;11.50;;;;;;;-0.05;86.11;96975.95;433651;1267;109181;-41
2022/02/01 19:35:41;;;;;;;25.70;13.10;;;;;;;-0.01;86.41;96947.98;433785;1267;97920;-39
2022/02/01 19:45:48;;;;;;;23.60;10.50;;;;;;;-0.01;86.39;96929.69;433369;1268;108703;-41
2022/02/01 19:55:57;;;;;;;19.50;8.40;;;;;;;0.00;86.56;96890.00;433835;1267;96613;-39
2022/02/01 20:06:06;;;;;;;18.00;8.60;;;;;;;-0.01;86.67;96866.58;433817;1267;110939;-39
2022/02/01 20:16:17;;;;;;;12.90;7.00;;;;;;;0.02;87.15;96846.92;433763;1266;108846;-39
2022/02/01 20:26:24;;;;;;;14.40;7.80;;;;;;;0.03;87.48;96826.76;433794;1267;97816;-42
2022/02/01 20:56:51;;;;;;;12.70;5.80;;;;;;;0.09;87.85;96742.85;433829;1267;109981;-39
2022/02/01 21:17:04;;;;;;;11.70;6.40;;;;;;;0.17;88.05;96723.63;433900;1267;98033;-39
2022/02/01 21:27:11;;;;;;;15.30;6.80;;;;;;;0.14;88.51;96699.19;433810;1267;108827;-40
2022/02/01 21:37:19;;;;;;;13.50;7.00;;;;;;;0.18;88.45;96695.27;433860;1267;98008;-41
2022/02/01 21:47:28;;;;;;;7.20;3.70;;;;;;;0.25;88.57;96683.92;433964;1267;111384;-40
2022/02/01 22:07:45;;;;;;;7.70;4.40;;;;;;;0.36;89.05;96644.48;433378;1268;97878;-39
2022/02/01 22:17:52;;;;;;;6.80;4.60;;;;;;;0.34;89.35;96624.93;433880;1267;108885;-40
2022/02/01 22:28:20;;;;;;;9.90;5.50;;;;;;;0.35;89.41;96624.13;433910;1267;97895;-40
2022/02/01 22:38:27;;;;;;;9.70;5.40;;;;;;;0.39;89.56;96625.02;433845;1267;111109;-40
2022/02/01 22:48:34;;;;;;;8.70;5.40;;;;;;;0.41;89.91;96607.61;433775;1267;108843;-43
2022/02/01 22:58:41;;;;;;;9.30;5.20;;;;;;;0.47;90.08;96591.41;433833;1266;97491;-40
2022/02/01 23:19:03;;;;;;;11.10;5.50;;;;;;;0.42;89.91;96583.58;433647;1268;108772;-41
2022/02/01 23:29:09;;;;;;;6.80;4.40;;;;;;;0.44;90.27;96582.59;433962;1267;97462;-41
2022/02/01 23:49:40;;;;;;;4.60;2.50;;;;;;;0.58;90.43;96578.38;433887;1267;97055;-39
2022/02/01 23:59:51;;;;;;;3.80;2.50;;;;;;;0.65;90.54;96571.49;433780;1267;111213;-40
